Time;durP1;ratioP1;P1;durP2;ratioP2;P2;SDS_P1;SDS_P2;PMS_P1;PMS_P2;Temp;Humidity;BMP_temperature;BMP_pressure;BME280_temperature;BME280_humidity;BME280_pressure;Samples;Min_cycle;Max_cycle;Signal;HPM_P1;HPM_P2
2024/01/09 00:01:58;;;;;;;899.97;94.47;;;;;;;;;;4976479;28;20033;-88
2024/01/09 00:04:25;;;;;;;822.55;86.53;;;;;;;;;;4978866;28;20056;-88
2024/01/09 00:06:51;;;;;;;827.25;86.03;;;;;;;;;;4983274;28;21004;-89
2024/01/09 00:09:19;;;;;;;763.55;78.68;;;;;;;;;;4972834;28;20075;-87
2024/01/09 00:11:46;;;;;;;797.40;79.50;;;;;;;;;;4981184;28;20097;-89
2024/01/09 00:14:13;;;;;;;781.70;81.32;;;;;;;;;;4973309;28;20056;-89
2024/01/09 00:16:40;;;;;;;843.80;88.53;;;;;;;;;;4976225;28;20063;-89
2024/01/09 00:19:07;;;;;;;805.60;85.35;;;;;;;;;;4981350;28;20953;-89
2024/01/09 00:21:33;;;;;;;822.50;86.03;;;;;;;;;;4974951;28;20048;-89
2024/01/09 00:24:00;;;;;;;878.45;92.45;;;;;;;;;;4981120;28;20101;-89
2024/01/09 00:26:27;;;;;;;813.40;85.57;;;;;;;;;;4986599;28;20139;-89
2024/01/09 00:28:54;;;;;;;819.78;87.85;;;;;;;;;;4972944;28;20842;-88
2024/01/09 00:31:20;;;;;;;849.83;90.47;;;;;;;;;;4989900;28;20036;-89
2024/01/09 00:33:47;;;;;;;894.00;93.10;;;;;;;;;;4988094;28;20037;-89
2024/01/09 00:36:14;;;;;;;908.72;96.93;;;;;;;;;;4999084;28;20037;-89
2024/01/09 00:38:41;;;;;;;815.17;83.43;;;;;;;;;;4992792;28;20340;-89
2024/01/09 00:41:08;;;;;;;693.28;71.70;;;;;;;;;;4985334;28;20086;-89
2024/01/09 00:43:35;;;;;;;631.83;64.85;;;;;;;;;;5006526;28;20029;-89
2024/01/09 00:46:02;;;;;;;604.17;62.72;;;;;;;;;;5014228;28;20045;-90
2024/01/09 00:48:29;;;;;;;651.00;66.60;;;;;;;;;;4998320;28;20045;-89
2024/01/09 00:50:56;;;;;;;679.22;71.47;;;;;;;;;;5004104;28;21075;-88
2024/01/09 00:53:22;;;;;;;734.58;75.22;;;;;;;;;;4985781;28;20029;-90
2024/01/09 00:55:50;;;;;;;646.35;68.75;;;;;;;;;;4992531;28;20086;-89
2024/01/09 00:58:16;;;;;;;679.75;72.80;;;;;;;;;;4995854;28;20598;-89
2024/01/09 01:00:43;;;;;;;752.53;76.65;;;;;;;;;;4973465;28;20037;-89
2024/01/09 01:03:10;;;;;;;773.63;78.85;;;;;;;;;;4989446;28;20036;-89
2024/01/09 01:05:36;;;;;;;800.58;84.90;;;;;;;;;;4982506;28;20040;-89
2024/01/09 01:08:04;;;;;;;878.88;91.55;;;;;;;;;;4973054;28;20122;-88
2024/01/09 01:10:30;;;;;;;817.15;88.05;;;;;;;;;;4963436;28;20036;-89
2024/01/09 01:12:58;;;;;;;810.60;83.13;;;;;;;;;;4987137;28;20051;-89
2024/01/09 01:15:25;;;;;;;839.90;88.88;;;;;;;;;;4976725;28;20051;-89
2024/01/09 01:17:52;;;;;;;804.33;86.13;;;;;;;;;;4985651;28;20127;-89
2024/01/09 01:20:18;;;;;;;777.97;85.88;;;;;;;;;;4990184;28;20112;-89
2024/01/09 01:22:45;;;;;;;808.60;85.63;;;;;;;;;;4986351;28;20029;-89
2024/01/09 01:25:12;;;;;;;825.97;87.65;;;;;;;;;;4993859;28;20979;-89
2024/01/09 01:27:38;;;;;;;861.47;91.43;;;;;;;;;;4965984;28;20037;-89
2024/01/09 01:30:05;;;;;;;753.42;83.30;;;;;;;;;;4967429;28;20966;-89
2024/01/09 01:32:32;;;;;;;896.90;97.32;;;;;;;;;;4989261;28;20041;-88
2024/01/09 01:34:59;;;;;;;850.85;92.00;;;;;;;;;;4970647;28;20032;-89
2024/01/09 01:37:26;;;;;;;883.50;93.47;;;;;;;;;;4959546;28;20968;-89
2024/01/09 01:39:53;;;;;;;897.63;97.40;;;;;;;;;;4973846;28;20147;-88
2024/01/09 01:42:19;;;;;;;872.40;93.68;;;;;;;;;;4957136;28;20137;-89
2024/01/09 01:44:46;;;;;;;849.75;92.32;;;;;;;;;;4979790;28;20038;-89
2024/01/09 01:47:14;;;;;;;841.30;89.90;;;;;;;;;;4972869;28;20033;-89
2024/01/09 01:49:42;;;;;;;843.22;89.78;;;;;;;;;;4957035;28;20812;-89
2024/01/09 01:52:10;;;;;;;819.85;88.20;;;;;;;;;;4976431;28;20033;-89
2024/01/09 01:54:37;;;;;;;804.78;85.72;;;;;;;;;;4987666;28;20048;-89
2024/01/09 01:57:04;;;;;;;877.53;96.15;;;;;;;;;;4978621;28;20076;-89
2024/01/09 01:59:32;;;;;;;851.60;95.18;;;;;;;;;;4976897;28;20040;-89
2024/01/09 02:01:59;;;;;;;830.70;90.75;;;;;;;;;;4906722;22;20109;-88
2024/01/09 02:04:26;;;;;;;733.15;83.57;;;;;;;;;;4917508;28;20046;-88
2024/01/09 02:06:53;;;;;;;621.90;68.32;;;;;;;;;;4926040;28;20101;-88
2024/01/09 02:09:19;;;;;;;632.03;71.50;;;;;;;;;;4919883;28;20038;-88
2024/01/09 02:11:48;;;;;;;496.63;55.97;;;;;;;;;;4939939;28;20137;-88
2024/01/09 02:14:15;;;;;;;524.83;61.50;;;;;;;;;;4945321;28;20038;-88
2024/01/09 02:16:42;;;;;;;632.33;68.68;;;;;;;;;;4935474;28;20061;-87
2024/01/09 02:19:08;;;;;;;556.08;64.57;;;;;;;;;;4920978;28;20046;-88
2024/01/09 02:21:35;;;;;;;681.00;76.07;;;;;;;;;;4930535;28;20576;-89
2024/01/09 02:24:02;;;;;;;743.03;82.00;;;;;;;;;;4921556;28;20976;-88
2024/01/09 02:26:34;;;;;;;632.63;72.55;;;;;;;;;;4926659;28;20042;-88
2024/01/09 02:29:22;;;;;;;718.78;76.90;;;;;;;;;;4921128;28;20043;-88
2024/01/09 02:31:49;;;;;;;666.75;75.00;;;;;;;;;;4918745;28;20096;-87
2024/01/09 02:34:16;;;;;;;690.58;76.75;;;;;;;;;;4924624;28;20049;-88
2024/01/09 02:36:43;;;;;;;716.72;78.53;;;;;;;;;;4917800;28;20096;-88
2024/01/09 02:39:10;;;;;;;671.58;77.80;;;;;;;;;;4922970;28;20038;-88
2024/01/09 02:41:38;;;;;;;725.63;80.07;;;;;;;;;;4921387;28;20041;-88
2024/01/09 02:44:04;;;;;;;803.70;88.05;;;;;;;;;;4915439;28;20124;-88
2024/01/09 02:46:31;;;;;;;754.88;82.25;;;;;;;;;;4919114;28;20042;-87
2024/01/09 02:48:57;;;;;;;809.15;92.82;;;;;;;;;;4912364;28;20208;-88
2024/01/09 02:51:24;;;;;;;861.35;95.78;;;;;;;;;;4907938;28;20821;-88
2024/01/09 02:53:51;;;;;;;823.17;89.63;;;;;;;;;;4893985;28;20045;-88
2024/01/09 02:56:18;;;;;;;864.60;94.32;;;;;;;;;;4897129;28;20065;-88
2024/01/09 02:58:45;;;;;;;902.72;96.25;;;;;;;;;;4878651;28;20106;-88
2024/01/09 03:01:12;;;;;;;894.10;98.65;;;;;;;;;;4877208;28;21057;-88
2024/01/09 03:03:38;;;;;;;902.50;97.60;;;;;;;;;;4892305;28;20067;-88
2024/01/09 03:06:05;;;;;;;969.78;101.70;;;;;;;;;;4891585;28;20261;-88
2024/01/09 03:08:32;;;;;;;955.22;103.82;;;;;;;;;;4890640;28;21007;-88
2024/01/09 03:10:59;;;;;;;934.08;101.05;;;;;;;;;;4888697;28;20838;-88
2024/01/09 03:13:26;;;;;;;954.60;103.78;;;;;;;;;;4887882;28;20042;-88
2024/01/09 03:15:52;;;;;;;943.40;103.75;;;;;;;;;;4890489;28;20120;-88
2024/01/09 03:18:19;;;;;;;903.20;100.40;;;;;;;;;;4870331;28;20069;-88
2024/01/09 03:20:46;;;;;;;931.80;98.55;;;;;;;;;;4889148;28;20043;-88
2024/01/09 03:23:13;;;;;;;957.30;105.57;;;;;;;;;;4885627;28;20048;-88
2024/01/09 03:25:39;;;;;;;942.20;101.38;;;;;;;;;;4871441;28;20212;-88
2024/01/09 03:28:07;;;;;;;1008.30;112.15;;;;;;;;;;4885729;28;20104;-88
2024/01/09 03:30:34;;;;;;;952.00;106.30;;;;;;;;;;4887793;28;20189;-88
2024/01/09 03:33:01;;;;;;;930.70;101.35;;;;;;;;;;4893082;28;20046;-88
2024/01/09 03:35:27;;;;;;;965.15;109.28;;;;;;;;;;4892516;28;20065;-88
2024/01/09 03:37:54;;;;;;;966.58;108.10;;;;;;;;;;4890944;28;20200;-88
2024/01/09 03:40:21;;;;;;;986.17;112.20;;;;;;;;;;4889158;28;20161;-87
2024/01/09 03:42:47;;;;;;;961.83;109.82;;;;;;;;;;4890449;28;20066;-88
2024/01/09 03:45:14;;;;;;;974.85;111.82;;;;;;;;;;4887250;28;20897;-88
2024/01/09 03:47:41;;;;;;;958.10;110.80;;;;;;;;;;4890913;28;20145;-88
2024/01/09 03:50:08;;;;;;;958.85;110.50;;;;;;;;;;4888495;28;20062;-87
2024/01/09 03:52:35;;;;;;;953.05;106.90;;;;;;;;;;4891657;28;20602;-88
2024/01/09 03:55:02;;;;;;;982.78;113.03;;;;;;;;;;4885011;28;20042;-87
2024/01/09 03:57:28;;;;;;;985.58;112.82;;;;;;;;;;4890285;28;20050;-87
2024/01/09 03:59:55;;;;;;;983.20;112.57;;;;;;;;;;4889739;28;20208;-88
2024/01/09 04:02:22;;;;;;;969.00;112.68;;;;;;;;;;4889609;28;20046;-87
2024/01/09 04:04:48;;;;;;;996.67;113.03;;;;;;;;;;4888807;28;20064;-87
2024/01/09 04:07:15;;;;;;;976.58;112.18;;;;;;;;;;4885577;28;20918;-87
2024/01/09 04:09:42;;;;;;;944.05;107.72;;;;;;;;;;4888126;28;20205;-87
2024/01/09 04:12:08;;;;;;;977.80;110.75;;;;;;;;;;4890139;28;20546;-88
2024/01/09 04:14:35;;;;;;;963.72;111.30;;;;;;;;;;4889240;28;20046;-88
2024/01/09 04:17:03;;;;;;;963.05;111.38;;;;;;;;;;4890651;28;20046;-88
2024/01/09 04:19:30;;;;;;;1015.30;112.43;;;;;;;;;;4878771;28;20030;-88
2024/01/09 04:21:57;;;;;;;985.88;111.63;;;;;;;;;;4887936;28;20104;-88
2024/01/09 04:24:24;;;;;;;981.00;111.03;;;;;;;;;;4889327;28;20124;-88
2024/01/09 04:26:51;;;;;;;980.05;110.88;;;;;;;;;;4890862;28;20201;-88
2024/01/09 04:29:18;;;;;;;981.03;112.40;;;;;;;;;;4889738;28;20050;-87
2024/01/09 04:31:45;;;;;;;945.05;108.97;;;;;;;;;;4890074;28;21192;-87
2024/01/09 04:34:12;;;;;;;972.67;109.75;;;;;;;;;;4890218;28;20038;-88
2024/01/09 04:36:39;;;;;;;976.40;113.00;;;;;;;;;;4905262;28;20398;-88
2024/01/09 04:39:06;;;;;;;890.38;102.78;;;;;;;;;;4910087;28;20069;-87
2024/01/09 04:41:32;;;;;;;849.00;100.13;;;;;;;;;;4897946;28;20619;-87
2024/01/09 04:43:59;;;;;;;751.60;88.97;;;;;;;;;;4910750;28;20061;-88
2024/01/09 04:46:26;;;;;;;661.83;80.30;;;;;;;;;;4921789;28;20128;-88
2024/01/09 04:48:53;;;;;;;629.55;77.90;;;;;;;;;;4924935;28;20038;-88
2024/01/09 04:51:20;;;;;;;649.25;73.53;;;;;;;;;;4921724;28;21016;-88
2024/01/09 04:53:46;;;;;;;669.55;78.88;;;;;;;;;;4923236;28;20906;-88
2024/01/09 04:56:13;;;;;;;802.03;99.80;;;;;;;;;;4918499;28;20149;-88
2024/01/09 04:58:40;;;;;;;843.95;102.47;;;;;;;;;;4905913;28;20283;-88
2024/01/09 05:01:10;;;;;;;897.05;106.03;;;;;;;;;;4884399;28;20058;-88
2024/01/09 05:03:38;;;;;;;959.95;113.18;;;;;;;;;;4895446;28;20089;-89
2024/01/09 05:06:04;;;;;;;936.30;106.93;;;;;;;;;;4895851;28;20556;-88
2024/01/09 05:08:31;;;;;;;926.10;107.60;;;;;;;;;;4894247;28;20046;-88
2024/01/09 05:10:58;;;;;;;925.88;106.72;;;;;;;;;;4893586;28;20856;-88
2024/01/09 05:13:26;;;;;;;957.28;111.07;;;;;;;;;;4891767;28;20150;-88
2024/01/09 05:15:52;;;;;;;963.45;111.13;;;;;;;;;;4892335;28;20034;-88
2024/01/09 05:18:19;;;;;;;981.22;112.55;;;;;;;;;;4891621;28;20038;-88
2024/01/09 05:20:46;;;;;;;992.85;113.47;;;;;;;;;;4887261;28;20047;-88
2024/01/09 05:23:13;;;;;;;1025.28;115.78;;;;;;;;;;4891532;28;20031;-88
2024/01/09 05:25:39;;;;;;;939.17;109.63;;;;;;;;;;4890650;28;20034;-88
2024/01/09 05:28:06;;;;;;;966.78;109.80;;;;;;;;;;4891936;28;20104;-88
2024/01/09 05:30:32;;;;;;;971.10;111.78;;;;;;;;;;4891913;28;20038;-88
2024/01/09 05:32:59;;;;;;;943.55;103.40;;;;;;;;;;4894416;28;20034;-88
2024/01/09 05:35:26;;;;;;;976.67;111.00;;;;;;;;;;4888406;28;21128;-87
2024/01/09 05:37:52;;;;;;;949.67;108.05;;;;;;;;;;4884381;28;20057;-88
2024/01/09 05:40:33;;;;;;;1019.22;116.35;;;;;;;;;;4888209;28;21059;-88
2024/01/09 05:42:59;;;;;;;976.92;113.15;;;;;;;;;;4887012;28;20061;-87
2024/01/09 05:45:26;;;;;;;1014.80;114.78;;;;;;;;;;4889239;28;20120;-87
2024/01/09 05:47:53;;;;;;;1073.63;120.70;;;;;;;;;;4897233;28;20367;-88
2024/01/09 05:50:20;;;;;;;989.92;112.43;;;;;;;;;;4878449;28;20050;-86
2024/01/09 05:52:47;;;;;;;1006.20;113.03;;;;;;;;;;4877754;28;20978;-87
2024/01/09 05:55:14;;;;;;;967.17;109.82;;;;;;;;;;4875469;28;20045;-87
2024/01/09 05:57:42;;;;;;;879.80;99.25;;;;;;;;;;4885268;28;20169;-88
2024/01/09 06:00:09;;;;;;;927.33;106.38;;;;;;;;;;4899548;28;20057;-88
2024/01/09 06:02:38;;;;;;;786.95;91.57;;;;;;;;;;4896988;28;20988;-87
2024/01/09 06:05:05;;;;;;;877.85;101.63;;;;;;;;;;4894627;28;20035;-88
2024/01/09 06:07:32;;;;;;;907.35;103.47;;;;;;;;;;4891077;28;20145;-88
2024/01/09 06:09:58;;;;;;;935.30;107.78;;;;;;;;;;4883740;28;20116;-87
2024/01/09 06:12:25;;;;;;;946.67;107.78;;;;;;;;;;4889899;28;20332;-88
2024/01/09 06:14:52;;;;;;;913.42;103.03;;;;;;;;;;4869137;28;20061;-88
2024/01/09 06:17:18;;;;;;;1263.18;140.27;;;;;;;;;;4882496;28;20034;-88
2024/01/09 06:19:45;;;;;;;1016.05;117.47;;;;;;;;;;4885450;28;20034;-88
2024/01/09 06:22:12;;;;;;;936.60;105.82;;;;;;;;;;4877595;28;20829;-88
2024/01/09 06:24:38;;;;;;;942.13;108.15;;;;;;;;;;4894466;28;20040;-88
2024/01/09 06:27:05;;;;;;;901.15;101.40;;;;;;;;;;4896398;28;20132;-88
2024/01/09 06:29:32;;;;;;;922.22;102.80;;;;;;;;;;4893515;28;20038;-88
2024/01/09 06:31:58;;;;;;;902.30;99.65;;;;;;;;;;4893087;28;21082;-88
2024/01/09 06:34:25;;;;;;;887.50;98.85;;;;;;;;;;4899376;28;20046;-88
2024/01/09 06:36:52;;;;;;;858.28;101.28;;;;;;;;;;4898700;28;20035;-88
2024/01/09 06:39:19;;;;;;;954.25;109.57;;;;;;;;;;4888142;28;20085;-89
2024/01/09 06:41:45;;;;;;;929.33;105.45;;;;;;;;;;4876264;28;20600;-88
2024/01/09 06:44:12;;;;;;;926.17;109.43;;;;;;;;;;4892199;28;20224;-87
2024/01/09 06:46:38;;;;;;;927.00;107.45;;;;;;;;;;4894639;28;20042;-88
2024/01/09 06:49:05;;;;;;;984.80;120.38;;;;;;;;;;4884404;28;20046;-88
2024/01/09 06:51:32;;;;;;;845.13;102.28;;;;;;;;;;4892224;28;20039;-90
2024/01/09 06:53:58;;;;;;;897.42;109.43;;;;;;;;;;4908052;28;20043;-89
2024/01/09 06:56:25;;;;;;;812.08;103.68;;;;;;;;;;4905802;28;20038;-89
2024/01/09 06:58:52;;;;;;;817.92;102.72;;;;;;;;;;4903922;28;20045;-90
2024/01/09 07:01:19;;;;;;;745.47;95.60;;;;;;;;;;4903174;28;20047;-89
2024/01/09 07:03:47;;;;;;;817.28;99.40;;;;;;;;;;4905030;28;20038;-90
2024/01/09 07:06:15;;;;;;;875.13;108.10;;;;;;;;;;4918433;28;20852;-88
2024/01/09 07:08:41;;;;;;;792.40;99.47;;;;;;;;;;4929420;28;20886;-90
2024/01/09 07:11:08;;;;;;;760.03;92.00;;;;;;;;;;4933131;28;20043;-91
2024/01/09 07:13:35;;;;;;;821.83;96.00;;;;;;;;;;4938588;28;20049;-91
2024/01/09 07:16:03;;;;;;;777.53;93.60;;;;;;;;;;4935291;28;21033;-90
2024/01/09 07:18:30;;;;;;;773.83;95.32;;;;;;;;;;4921188;28;20105;-88
2024/01/09 07:20:57;;;;;;;478.00;64.38;;;;;;;;;;4939010;28;20049;-90
2024/01/09 07:23:24;;;;;;;533.35;67.85;;;;;;;;;;4947670;28;20042;-90
2024/01/09 07:25:52;;;;;;;500.73;65.10;;;;;;;;;;4945100;28;20113;-89
2024/01/09 07:28:18;;;;;;;398.17;54.80;;;;;;;;;;4945154;28;20045;-91
2024/01/09 07:30:46;;;;;;;723.85;88.60;;;;;;;;;;4931743;28;20153;-91
2024/01/09 07:33:12;;;;;;;573.45;72.88;;;;;;;;;;4924902;28;20845;-91
2024/01/09 07:35:39;;;;;;;397.63;61.70;;;;;;;;;;4933711;28;20047;-89
2024/01/09 07:38:06;;;;;;;627.38;81.00;;;;;;;;;;4942668;28;20042;-90
2024/01/09 07:40:33;;;;;;;759.05;95.35;;;;;;;;;;4949589;28;20054;-90
2024/01/09 07:43:00;;;;;;;806.88;108.30;;;;;;;;;;4913755;28;20042;-91
2024/01/09 07:45:28;;;;;;;796.58;101.47;;;;;;;;;;4901365;28;20053;-89
2024/01/09 07:47:55;;;;;;;846.65;112.70;;;;;;;;;;4900239;28;20873;-90
2024/01/09 07:50:22;;;;;;;976.63;125.53;;;;;;;;;;4892061;28;20461;-88
2024/01/09 07:52:49;;;;;;;921.38;113.97;;;;;;;;;;4888752;28;20038;-89
2024/01/09 07:55:15;;;;;;;824.55;100.85;;;;;;;;;;4891731;28;20049;-90
2024/01/09 07:57:42;;;;;;;1002.40;128.02;;;;;;;;;;4891770;28;20046;-89
2024/01/09 08:00:09;;;;;;;977.25;122.18;;;;;;;;;;4889761;28;20961;-89
2024/01/09 08:02:39;;;;;;;1022.00;128.70;;;;;;;;;;4888477;28;21191;-89
2024/01/09 08:05:05;;;;;;;924.92;128.63;;;;;;;;;;4888389;28;20043;-89
2024/01/09 08:07:32;;;;;;;930.95;118.05;;;;;;;;;;4893723;28;20053;-89
2024/01/09 08:09:59;;;;;;;905.25;106.22;;;;;;;;;;4892413;28;20107;-89
2024/01/09 08:12:25;;;;;;;865.08;105.78;;;;;;;;;;4892692;28;20035;-89
2024/01/09 08:14:53;;;;;;;822.25;98.25;;;;;;;;;;4896062;28;20042;-90
2024/01/09 08:17:19;;;;;;;862.97;106.68;;;;;;;;;;4901544;28;20046;-89
2024/01/09 08:19:46;;;;;;;861.13;110.38;;;;;;;;;;4900146;28;20372;-90
2024/01/09 08:22:13;;;;;;;873.15;105.80;;;;;;;;;;4898109;28;20042;-89
2024/01/09 08:24:40;;;;;;;928.45;119.60;;;;;;;;;;4896096;28;20035;-90
2024/01/09 08:27:07;;;;;;;889.83;115.53;;;;;;;;;;4898525;28;20035;-89
2024/01/09 08:29:34;;;;;;;883.58;111.70;;;;;;;;;;4898115;28;20069;-89
2024/01/09 08:32:01;;;;;;;925.08;118.70;;;;;;;;;;4898028;28;20057;-89
2024/01/09 08:34:28;;;;;;;835.83;110.43;;;;;;;;;;4907383;28;20107;-90
2024/01/09 08:36:55;;;;;;;836.03;103.50;;;;;;;;;;4895046;28;20034;-89
2024/01/09 08:39:21;;;;;;;879.45;113.60;;;;;;;;;;4899325;28;20151;-90
2024/01/09 08:41:48;;;;;;;883.15;114.50;;;;;;;;;;4898245;28;20699;-90
2024/01/09 08:44:16;;;;;;;813.20;103.15;;;;;;;;;;4895426;28;20042;-89
2024/01/09 08:46:44;;;;;;;823.00;94.53;;;;;;;;;;4903136;28;20034;-90
2024/01/09 08:49:12;;;;;;;835.38;104.50;;;;;;;;;;4897698;28;20141;-90
2024/01/09 08:51:39;;;;;;;855.10;102.22;;;;;;;;;;4895582;28;20034;-90
2024/01/09 08:54:07;;;;;;;915.90;110.38;;;;;;;;;;4897714;28;20220;-90
2024/01/09 08:56:33;;;;;;;902.08;106.43;;;;;;;;;;4890368;28;20049;-90
2024/01/09 08:59:01;;;;;;;907.00;104.40;;;;;;;;;;4892250;28;20878;-90
2024/01/09 09:01:29;;;;;;;915.13;101.75;;;;;;;;;;4910205;28;20477;-89
2024/01/09 09:03:55;;;;;;;917.42;108.90;;;;;;;;;;4914959;28;20018;-90
2024/01/09 09:06:22;;;;;;;948.65;110.60;;;;;;;;;;4914346;28;20712;-90
2024/01/09 09:08:49;;;;;;;856.65;96.65;;;;;;;;;;4916591;28;20552;-90
2024/01/09 09:11:16;;;;;;;882.47;102.32;;;;;;;;;;4898207;28;20770;-90
2024/01/09 09:13:44;;;;;;;887.45;99.85;;;;;;;;;;4873018;28;20093;-90
2024/01/09 09:16:10;;;;;;;751.03;83.38;;;;;;;;;;4901899;28;20179;-89
2024/01/09 09:18:37;;;;;;;796.35;90.50;;;;;;;;;;4904696;28;20047;-89
2024/01/09 09:21:05;;;;;;;702.33;81.75;;;;;;;;;;4907752;28;20814;-90
2024/01/09 09:23:31;;;;;;;659.80;66.20;;;;;;;;;;4916679;28;20871;-90
2024/01/09 09:25:58;;;;;;;701.58;77.28;;;;;;;;;;4915851;28;20043;-89
2024/01/09 09:28:25;;;;;;;650.63;92.10;;;;;;;;;;4923858;28;20035;-90
2024/01/09 09:31:08;;;;;;;699.92;89.25;;;;;;;;;;4918403;28;20161;-90
2024/01/09 09:33:35;;;;;;;637.85;73.47;;;;;;;;;;4920678;28;20064;-90
2024/01/09 09:36:05;;;;;;;692.10;78.88;;;;;;;;;;4924000;28;20116;-88
2024/01/09 09:38:33;;;;;;;637.45;63.30;;;;;;;;;;4922447;28;20071;-90
2024/01/09 09:41:06;;;;;;;610.00;66.63;;;;;;;;;;4907198;28;20037;-90
2024/01/09 09:43:34;;;;;;;718.60;81.13;;;;;;;;;;4912827;28;20042;-89
2024/01/09 09:46:03;;;;;;;721.88;81.68;;;;;;;;;;4918036;28;20045;-90
2024/01/09 09:48:34;;;;;;;747.03;79.03;;;;;;;;;;4931491;28;20120;-89
2024/01/09 09:51:01;;;;;;;702.67;77.72;;;;;;;;;;4920565;28;21050;-89
2024/01/09 09:53:30;;;;;;;608.97;64.63;;;;;;;;;;4924667;28;20042;-89
2024/01/09 09:55:57;;;;;;;556.78;59.88;;;;;;;;;;4930839;28;20039;-90
2024/01/09 09:58:24;;;;;;;555.88;58.88;;;;;;;;;;4904149;28;20833;-89
2024/01/09 10:00:52;;;;;;;557.67;58.35;;;;;;;;;;4936163;28;20913;-90
2024/01/09 10:03:20;;;;;;;555.80;59.05;;;;;;;;;;4932250;28;20833;-90
2024/01/09 10:05:49;;;;;;;596.03;62.55;;;;;;;;;;4929464;28;20042;-90
2024/01/09 10:08:17;;;;;;;631.88;64.95;;;;;;;;;;4918578;28;20042;-90
2024/01/09 10:10:43;;;;;;;734.15;70.32;;;;;;;;;;4910236;28;20691;-90
2024/01/09 10:13:11;;;;;;;742.70;79.40;;;;;;;;;;4906214;28;20054;-90
2024/01/09 10:15:54;;;;;;;784.40;87.72;;;;;;;;;;4899658;28;20046;-89
2024/01/09 10:18:21;;;;;;;796.15;87.07;;;;;;;;;;4906359;28;20042;-90
2024/01/09 10:20:48;;;;;;;797.92;85.43;;;;;;;;;;4895860;28;20034;-90
2024/01/09 10:23:14;;;;;;;812.15;87.68;;;;;;;;;;4896045;28;20054;-90
2024/01/09 10:25:41;;;;;;;786.90;84.53;;;;;;;;;;4892240;28;20961;-90
2024/01/09 10:28:14;;;;;;;819.00;88.57;;;;;;;;;;4891110;28;20114;-90
2024/01/09 10:30:40;;;;;;;819.28;84.93;;;;;;;;;;4889830;28;20109;-90
2024/01/09 10:33:14;;;;;;;821.33;88.45;;;;;;;;;;4890621;28;20529;-89
2024/01/09 10:35:41;;;;;;;820.97;88.80;;;;;;;;;;4888432;28;20050;-90
2024/01/09 10:38:09;;;;;;;843.58;90.00;;;;;;;;;;4889253;28;20104;-90
2024/01/09 10:40:36;;;;;;;830.35;90.43;;;;;;;;;;4888825;28;20042;-89
2024/01/09 10:43:03;;;;;;;864.08;94.22;;;;;;;;;;4887197;28;20038;-89
2024/01/09 10:45:32;;;;;;;838.03;90.95;;;;;;;;;;4888624;28;20133;-89
2024/01/09 10:47:59;;;;;;;842.70;90.93;;;;;;;;;;4886381;28;20087;-89
2024/01/09 10:50:26;;;;;;;843.05;90.30;;;;;;;;;;4887399;28;20038;-90
2024/01/09 10:52:52;;;;;;;840.88;91.50;;;;;;;;;;4885739;28;20141;-90
2024/01/09 10:55:23;;;;;;;844.25;91.82;;;;;;;;;;4887267;28;20897;-89
2024/01/09 10:57:50;;;;;;;791.42;86.90;;;;;;;;;;4873001;28;20157;-90
2024/01/09 11:00:18;;;;;;;807.58;88.57;;;;;;;;;;4890659;28;20109;-90
2024/01/09 11:02:45;;;;;;;849.13;94.68;;;;;;;;;;4872793;28;20084;-90
2024/01/09 11:05:13;;;;;;;782.58;85.32;;;;;;;;;;4887798;28;20034;-90
2024/01/09 11:07:44;;;;;;;794.00;89.07;;;;;;;;;;4883301;28;20030;-90
2024/01/09 11:10:15;;;;;;;807.58;88.22;;;;;;;;;;4888977;28;20050;-90
2024/01/09 11:12:44;;;;;;;914.17;111.25;;;;;;;;;;4872973;28;20061;-90
2024/01/09 11:15:17;;;;;;;808.22;91.10;;;;;;;;;;4890868;28;20105;-90
2024/01/09 11:17:46;;;;;;;788.35;85.30;;;;;;;;;;4888540;28;20100;-89
2024/01/09 11:20:14;;;;;;;817.85;88.30;;;;;;;;;;4888524;28;20808;-90
2024/01/09 11:22:41;;;;;;;820.25;89.68;;;;;;;;;;4870892;28;20038;-90
2024/01/09 11:25:15;;;;;;;770.85;84.32;;;;;;;;;;4888094;28;20885;-90
2024/01/09 11:27:44;;;;;;;812.33;91.53;;;;;;;;;;4888063;28;20042;-89
2024/01/09 11:30:14;;;;;;;803.47;88.72;;;;;;;;;;4889922;28;20042;-89
2024/01/09 11:32:41;;;;;;;815.97;93.93;;;;;;;;;;4870626;28;20128;-90
2024/01/09 11:35:13;;;;;;;794.22;92.60;;;;;;;;;;4892023;28;20851;-90
2024/01/09 11:37:47;;;;;;;824.13;93.00;;;;;;;;;;4888653;28;20065;-90
2024/01/09 11:40:15;;;;;;;799.15;91.82;;;;;;;;;;4889505;28;20290;-90
2024/01/09 11:42:45;;;;;;;819.53;95.68;;;;;;;;;;4875932;28;20066;-90
2024/01/09 11:45:12;;;;;;;780.85;85.00;;;;;;;;;;4891592;28;20050;-89
2024/01/09 11:47:39;;;;;;;790.53;83.28;;;;;;;;;;4886227;28;20077;-89
2024/01/09 11:50:07;;;;;;;865.40;98.38;;;;;;;;;;4886656;28;20042;-90
2024/01/09 11:52:35;;;;;;;818.35;91.90;;;;;;;;;;4888169;28;20038;-89
2024/01/09 11:55:07;;;;;;;823.15;87.68;;;;;;;;;;4893545;28;20957;-90
2024/01/09 11:57:34;;;;;;;850.17;98.80;;;;;;;;;;4894783;28;20043;-90
2024/01/09 12:00:05;;;;;;;785.10;88.25;;;;;;;;;;4895655;28;20034;-90
2024/01/09 12:02:42;;;;;;;840.38;96.63;;;;;;;;;;4900197;28;20049;-90
2024/01/09 12:05:09;;;;;;;797.58;90.88;;;;;;;;;;4896403;28;20042;-90
2024/01/09 12:07:37;;;;;;;832.97;110.03;;;;;;;;;;4895666;28;20178;-89
2024/01/09 12:10:04;;;;;;;814.25;91.13;;;;;;;;;;4892611;28;20046;-89
2024/01/09 12:12:46;;;;;;;828.30;90.03;;;;;;;;;;4890240;28;20894;-90
2024/01/09 12:15:17;;;;;;;824.88;85.90;;;;;;;;;;4891191;28;20924;-89
2024/01/09 12:17:52;;;;;;;809.22;85.43;;;;;;;;;;4890331;28;20062;-89
2024/01/09 12:20:19;;;;;;;864.97;91.57;;;;;;;;;;4896100;28;20425;-90
2024/01/09 12:22:46;;;;;;;862.22;91.00;;;;;;;;;;4913032;28;20494;-90
2024/01/09 12:25:13;;;;;;;757.53;79.57;;;;;;;;;;4902128;28;20276;-89
2024/01/09 12:27:39;;;;;;;677.10;71.20;;;;;;;;;;4906886;28;20898;-89
2024/01/09 12:30:06;;;;;;;632.50;66.97;;;;;;;;;;4934063;28;20539;-89
2024/01/09 12:32:33;;;;;;;566.25;61.50;;;;;;;;;;4922548;28;20284;-90
2024/01/09 12:35:00;;;;;;;555.05;58.40;;;;;;;;;;4920123;28;20943;-89
2024/01/09 12:37:28;;;;;;;626.10;67.70;;;;;;;;;;4916376;28;21028;-89
2024/01/09 12:40:01;;;;;;;693.45;72.88;;;;;;;;;;4905873;28;20110;-89
2024/01/09 12:42:28;;;;;;;700.13;77.63;;;;;;;;;;4904461;28;20035;-89
2024/01/09 12:44:55;;;;;;;625.30;69.88;;;;;;;;;;4909310;28;20894;-89
2024/01/09 12:47:22;;;;;;;721.97;76.13;;;;;;;;;;4912495;28;20038;-89
2024/01/09 12:49:51;;;;;;;753.28;89.63;;;;;;;;;;4911718;28;22489;-88
2024/01/09 12:52:34;;;;;;;784.65;87.43;;;;;;;;;;4899051;28;20050;-89
2024/01/09 12:55:01;;;;;;;792.75;87.28;;;;;;;;;;4889328;28;20375;-89
2024/01/09 12:57:31;;;;;;;782.38;85.05;;;;;;;;;;4893485;28;20244;-89
2024/01/09 12:59:57;;;;;;;791.42;82.15;;;;;;;;;;4892798;28;20868;-89
2024/01/09 13:02:24;;;;;;;752.88;79.28;;;;;;;;;;4895763;28;20054;-88
2024/01/09 13:04:51;;;;;;;770.63;82.72;;;;;;;;;;4894991;28;20642;-88
2024/01/09 13:07:18;;;;;;;786.72;83.68;;;;;;;;;;4896496;28;20065;-88
2024/01/09 13:09:45;;;;;;;798.53;84.88;;;;;;;;;;4889582;28;20041;-89
2024/01/09 13:12:11;;;;;;;764.83;81.57;;;;;;;;;;4889162;28;20049;-88
2024/01/09 13:14:41;;;;;;;803.97;87.00;;;;;;;;;;4890705;28;20134;-88
2024/01/09 13:17:08;;;;;;;752.90;82.85;;;;;;;;;;4887193;28;20046;-88
2024/01/09 13:19:34;;;;;;;813.95;87.45;;;;;;;;;;4893955;28;20042;-88
2024/01/09 13:22:04;;;;;;;816.00;88.38;;;;;;;;;;4888948;28;21229;-89
2024/01/09 13:24:33;;;;;;;850.15;89.88;;;;;;;;;;4888809;28;20146;-88
2024/01/09 13:27:03;;;;;;;799.55;88.43;;;;;;;;;;4889008;28;20046;-88
2024/01/09 13:29:31;;;;;;;761.30;83.50;;;;;;;;;;4892382;28;20141;-88
2024/01/09 13:32:01;;;;;;;799.38;85.75;;;;;;;;;;4884474;28;20148;-88
2024/01/09 13:34:28;;;;;;;823.53;91.97;;;;;;;;;;4871995;28;20042;-88
2024/01/09 13:36:56;;;;;;;828.15;89.75;;;;;;;;;;4888354;28;20043;-89
2024/01/09 13:39:25;;;;;;;827.15;93.65;;;;;;;;;;4888787;28;20069;-89
2024/01/09 13:41:52;;;;;;;793.75;86.32;;;;;;;;;;4891057;28;20174;-89
2024/01/09 13:44:19;;;;;;;761.22;85.90;;;;;;;;;;4893856;28;20050;-88
2024/01/09 13:46:47;;;;;;;794.45;89.88;;;;;;;;;;4891866;28;20584;-88
2024/01/09 13:49:14;;;;;;;848.78;92.60;;;;;;;;;;4887255;28;21026;-89
2024/01/09 13:51:41;;;;;;;809.95;90.60;;;;;;;;;;4886585;28;21125;-88
2024/01/09 13:54:20;;;;;;;723.50;78.75;;;;;;;;;;4891585;28;20085;-88
2024/01/09 13:56:47;;;;;;;805.33;86.28;;;;;;;;;;4887156;28;20042;-88
2024/01/09 13:59:14;;;;;;;891.05;99.03;;;;;;;;;;4886874;28;20809;-88
2024/01/09 14:01:43;;;;;;;807.88;87.60;;;;;;;;;;4888818;28;20055;-89